sensor_id;sensor_type;location;lat;lon;timestamp;P1;durP1;ratioP1;P2;durP2;ratioP2
3811;SDS011;1921;49.368;11.068;2022-12-13T00:01:24;27.13;;;26.05;;
3811;SDS011;1921;49.368;11.068;2022-12-13T00:03:52;29.02;;;27.75;;
3811;SDS011;1921;49.368;11.068;2022-12-13T00:06:19;26.75;;;25.65;;
3811;SDS011;1921;49.368;11.068;2022-12-13T00:08:44;26.97;;;25.97;;
3811;SDS011;1921;49.368;11.068;2022-12-13T00:11:11;28.70;;;27.50;;
3811;SDS011;1921;49.368;11.068;2022-12-13T00:17:19;28.23;;;26.30;;
3811;SDS011;1921;49.368;11.068;2022-12-13T00:19:48;26.23;;;25.30;;
3811;SDS011;1921;49.368;11.068;2022-12-13T00:22:14;29.92;;;28.15;;
3811;SDS011;1921;49.368;11.068;2022-12-13T00:24:41;28.90;;;27.55;;
3811;SDS011;1921;49.368;11.068;2022-12-13T00:27:07;25.92;;;25.02;;
3811;SDS011;1921;49.368;11.068;2022-12-13T00:29:33;25.30;;;24.40;;
3811;SDS011;1921;49.368;11.068;2022-12-13T00:31:58;26.77;;;25.77;;
3811;SDS011;1921;49.368;11.068;2022-12-13T00:34:24;26.37;;;25.37;;
3811;SDS011;1921;49.368;11.068;2022-12-13T00:36:52;27.60;;;26.30;;
3811;SDS011;1921;49.368;11.068;2022-12-13T00:39:18;26.23;;;25.13;;
3811;SDS011;1921;49.368;11.068;2022-12-13T00:41:44;27.07;;;25.97;;
3811;SDS011;1921;49.368;11.068;2022-12-13T00:44:11;26.77;;;25.73;;
3811;SDS011;1921;49.368;11.068;2022-12-13T00:46:38;29.00;;;27.50;;
3811;SDS011;1921;49.368;11.068;2022-12-13T00:49:05;26.98;;;25.60;;
3811;SDS011;1921;49.368;11.068;2022-12-13T00:51:31;26.47;;;25.17;;
3811;SDS011;1921;49.368;11.068;2022-12-13T00:53:58;25.77;;;24.85;;
3811;SDS011;1921;49.368;11.068;2022-12-13T00:56:26;27.60;;;26.50;;
3811;SDS011;1921;49.368;11.068;2022-12-13T00:58:54;24.92;;;24.02;;
3811;SDS011;1921;49.368;11.068;2022-12-13T01:01:21;25.55;;;24.48;;
3811;SDS011;1921;49.368;11.068;2022-12-13T01:03:51;26.27;;;24.83;;
3811;SDS011;1921;49.368;11.068;2022-12-13T01:06:20;23.77;;;22.88;;
3811;SDS011;1921;49.368;11.068;2022-12-13T01:08:51;24.55;;;23.55;;
3811;SDS011;1921;49.368;11.068;2022-12-13T01:11:17;26.33;;;24.97;;
3811;SDS011;1921;49.368;11.068;2022-12-13T01:13:43;24.83;;;23.47;;
3811;SDS011;1921;49.368;11.068;2022-12-13T01:16:09;27.60;;;26.20;;
3811;SDS011;1921;49.368;11.068;2022-12-13T01:18:37;31.75;;;28.48;;
3811;SDS011;1921;49.368;11.068;2022-12-13T01:21:05;26.30;;;25.20;;
3811;SDS011;1921;49.368;11.068;2022-12-13T01:23:35;25.35;;;24.35;;
3811;SDS011;1921;49.368;11.068;2022-12-13T01:26:02;25.35;;;24.25;;
3811;SDS011;1921;49.368;11.068;2022-12-13T01:28:30;25.08;;;24.17;;
3811;SDS011;1921;49.368;11.068;2022-12-13T01:30:58;28.85;;;26.85;;
3811;SDS011;1921;49.368;11.068;2022-12-13T01:33:39;23.77;;;22.88;;
3811;SDS011;1921;49.368;11.068;2022-12-13T01:36:07;23.83;;;22.92;;
3811;SDS011;1921;49.368;11.068;2022-12-13T01:38:45;25.45;;;24.25;;
3811;SDS011;1921;49.368;11.068;2022-12-13T01:41:14;24.47;;;23.60;;
3811;SDS011;1921;49.368;11.068;2022-12-13T01:46:12;26.73;;;25.52;;
3811;SDS011;1921;49.368;11.068;2022-12-13T01:48:46;25.90;;;24.25;;
3811;SDS011;1921;49.368;11.068;2022-12-13T01:51:55;24.00;;;23.00;;
3811;SDS011;1921;49.368;11.068;2022-12-13T01:54:31;23.83;;;23.02;;
3811;SDS011;1921;49.368;11.068;2022-12-13T01:57:03;23.15;;;22.35;;
3811;SDS011;1921;49.368;11.068;2022-12-13T01:59:33;22.98;;;22.20;;
3811;SDS011;1921;49.368;11.068;2022-12-13T02:02:01;25.05;;;23.55;;
3811;SDS011;1921;49.368;11.068;2022-12-13T02:07:49;25.30;;;24.20;;
3811;SDS011;1921;49.368;11.068;2022-12-13T02:10:16;23.35;;;22.55;;
3811;SDS011;1921;49.368;11.068;2022-12-13T02:12:42;24.17;;;23.27;;
3811;SDS011;1921;49.368;11.068;2022-12-13T02:15:15;24.35;;;23.45;;
3811;SDS011;1921;49.368;11.068;2022-12-13T02:17:50;24.83;;;23.60;;
3811;SDS011;1921;49.368;11.068;2022-12-13T02:23:25;25.70;;;23.80;;
3811;SDS011;1921;49.368;11.068;2022-12-13T02:32:29;22.92;;;22.08;;
3811;SDS011;1921;49.368;11.068;2022-12-13T02:35:21;21.77;;;20.75;;
3811;SDS011;1921;49.368;11.068;2022-12-13T02:40:39;21.90;;;21.20;;
3811;SDS011;1921;49.368;11.068;2022-12-13T02:43:21;22.00;;;21.20;;
3811;SDS011;1921;49.368;11.068;2022-12-13T02:45:54;24.63;;;23.63;;
3811;SDS011;1921;49.368;11.068;2022-12-13T02:48:26;23.20;;;22.40;;
3811;SDS011;1921;49.368;11.068;2022-12-13T02:50:55;21.52;;;20.77;;
3811;SDS011;1921;49.368;11.068;2022-12-13T02:53:24;21.90;;;21.20;;
3811;SDS011;1921;49.368;11.068;2022-12-13T02:55:50;22.70;;;21.90;;
3811;SDS011;1921;49.368;11.068;2022-12-13T02:58:18;23.98;;;22.77;;
3811;SDS011;1921;49.368;11.068;2022-12-13T03:06:25;22.05;;;21.25;;
3811;SDS011;1921;49.368;11.068;2022-12-13T03:09:24;22.35;;;21.55;;
3811;SDS011;1921;49.368;11.068;2022-12-13T03:12:30;22.52;;;21.52;;
3811;SDS011;1921;49.368;11.068;2022-12-13T03:16:08;22.20;;;21.42;;
3811;SDS011;1921;49.368;11.068;2022-12-13T03:19:04;21.05;;;20.30;;
3811;SDS011;1921;49.368;11.068;2022-12-13T03:21:40;25.23;;;23.33;;
3811;SDS011;1921;49.368;11.068;2022-12-13T03:24:09;23.67;;;22.73;;
3811;SDS011;1921;49.368;11.068;2022-12-13T03:26:35;31.67;;;24.58;;
3811;SDS011;1921;49.368;11.068;2022-12-13T03:29:03;22.05;;;21.35;;
3811;SDS011;1921;49.368;11.068;2022-12-13T03:31:30;21.65;;;20.88;;
3811;SDS011;1921;49.368;11.068;2022-12-13T03:33:56;23.00;;;21.27;;
3811;SDS011;1921;49.368;11.068;2022-12-13T03:36:22;22.15;;;21.35;;
3811;SDS011;1921;49.368;11.068;2022-12-13T03:38:49;22.90;;;22.00;;
3811;SDS011;1921;49.368;11.068;2022-12-13T03:41:18;25.67;;;24.38;;
3811;SDS011;1921;49.368;11.068;2022-12-13T03:43:55;24.45;;;23.25;;
3811;SDS011;1921;49.368;11.068;2022-12-13T03:46:27;21.92;;;20.83;;
3811;SDS011;1921;49.368;11.068;2022-12-13T03:48:52;23.03;;;22.23;;
3811;SDS011;1921;49.368;11.068;2022-12-13T03:51:18;22.97;;;22.07;;
3811;SDS011;1921;49.368;11.068;2022-12-13T03:53:44;21.87;;;21.07;;
3811;SDS011;1921;49.368;11.068;2022-12-13T03:56:10;24.50;;;23.40;;
3811;SDS011;1921;49.368;11.068;2022-12-13T03:58:35;21.40;;;20.70;;
3811;SDS011;1921;49.368;11.068;2022-12-13T04:01:01;25.63;;;24.43;;
3811;SDS011;1921;49.368;11.068;2022-12-13T04:03:33;23.10;;;22.30;;
3811;SDS011;1921;49.368;11.068;2022-12-13T04:06:00;22.90;;;22.00;;
3811;SDS011;1921;49.368;11.068;2022-12-13T04:08:26;26.03;;;24.30;;
3811;SDS011;1921;49.368;11.068;2022-12-13T04:10:51;20.90;;;20.20;;
3811;SDS011;1921;49.368;11.068;2022-12-13T04:13:17;21.60;;;20.90;;
3811;SDS011;1921;49.368;11.068;2022-12-13T04:15:58;22.48;;;21.55;;
3811;SDS011;1921;49.368;11.068;2022-12-13T04:18:25;22.58;;;21.77;;
3811;SDS011;1921;49.368;11.068;2022-12-13T04:20:50;20.67;;;20.00;;
3811;SDS011;1921;49.368;11.068;2022-12-13T04:23:16;21.57;;;20.87;;
3811;SDS011;1921;49.368;11.068;2022-12-13T04:25:42;20.63;;;19.97;;
3811;SDS011;1921;49.368;11.068;2022-12-13T04:28:08;22.20;;;21.40;;
3811;SDS011;1921;49.368;11.068;2022-12-13T04:30:34;19.93;;;19.33;;
3811;SDS011;1921;49.368;11.068;2022-12-13T04:33:01;21.67;;;20.88;;
3811;SDS011;1921;49.368;11.068;2022-12-13T04:35:27;22.02;;;21.08;;
3811;SDS011;1921;49.368;11.068;2022-12-13T04:37:53;22.20;;;21.10;;
3811;SDS011;1921;49.368;11.068;2022-12-13T04:40:20;23.17;;;22.10;;
3811;SDS011;1921;49.368;11.068;2022-12-13T04:42:46;22.57;;;21.67;;
3811;SDS011;1921;49.368;11.068;2022-12-13T04:45:15;20.90;;;20.10;;
3811;SDS011;1921;49.368;11.068;2022-12-13T04:47:42;22.63;;;21.75;;
3811;SDS011;1921;49.368;11.068;2022-12-13T04:50:08;20.15;;;19.45;;
3811;SDS011;1921;49.368;11.068;2022-12-13T04:52:34;21.88;;;21.08;;
3811;SDS011;1921;49.368;11.068;2022-12-13T04:55:01;21.38;;;20.52;;
3811;SDS011;1921;49.368;11.068;2022-12-13T04:57:27;23.10;;;22.00;;
3811;SDS011;1921;49.368;11.068;2022-12-13T04:59:53;21.20;;;20.50;;
3811;SDS011;1921;49.368;11.068;2022-12-13T05:02:19;22.37;;;21.47;;
3811;SDS011;1921;49.368;11.068;2022-12-13T05:04:45;19.67;;;19.00;;
3811;SDS011;1921;49.368;11.068;2022-12-13T05:07:10;21.50;;;20.73;;
3811;SDS011;1921;49.368;11.068;2022-12-13T05:09:36;19.03;;;18.43;;
3811;SDS011;1921;49.368;11.068;2022-12-13T05:12:02;19.80;;;19.20;;
3811;SDS011;1921;49.368;11.068;2022-12-13T05:14:31;19.80;;;19.20;;
3811;SDS011;1921;49.368;11.068;2022-12-13T05:16:57;21.10;;;20.40;;
3811;SDS011;1921;49.368;11.068;2022-12-13T05:19:27;23.17;;;20.88;;
3811;SDS011;1921;49.368;11.068;2022-12-13T05:21:53;20.25;;;19.63;;
3811;SDS011;1921;49.368;11.068;2022-12-13T05:24:18;19.63;;;19.03;;
3811;SDS011;1921;49.368;11.068;2022-12-13T05:26:44;19.67;;;19.00;;
3811;SDS011;1921;49.368;11.068;2022-12-13T05:29:10;19.47;;;18.77;;
3811;SDS011;1921;49.368;11.068;2022-12-13T05:31:36;20.63;;;19.83;;
3811;SDS011;1921;49.368;11.068;2022-12-13T05:34:01;19.93;;;18.67;;
3811;SDS011;1921;49.368;11.068;2022-12-13T05:36:27;20.83;;;19.93;;
3811;SDS011;1921;49.368;11.068;2022-12-13T05:38:53;19.47;;;18.87;;
3811;SDS011;1921;49.368;11.068;2022-12-13T05:41:19;20.10;;;18.67;;
3811;SDS011;1921;49.368;11.068;2022-12-13T05:43:51;23.63;;;21.98;;
3811;SDS011;1921;49.368;11.068;2022-12-13T05:46:17;20.80;;;20.10;;
3811;SDS011;1921;49.368;11.068;2022-12-13T05:48:43;23.30;;;22.17;;
3811;SDS011;1921;49.368;11.068;2022-12-13T05:51:09;20.58;;;19.33;;
3811;SDS011;1921;49.368;11.068;2022-12-13T05:53:35;20.08;;;19.38;;
3811;SDS011;1921;49.368;11.068;2022-12-13T05:56:01;18.20;;;17.70;;
3811;SDS011;1921;49.368;11.068;2022-12-13T05:58:27;18.63;;;18.02;;
3811;SDS011;1921;49.368;11.068;2022-12-13T06:00:53;19.17;;;18.47;;
3811;SDS011;1921;49.368;11.068;2022-12-13T06:03:19;22.30;;;20.93;;
3811;SDS011;1921;49.368;11.068;2022-12-13T06:05:45;18.95;;;18.35;;
3811;SDS011;1921;49.368;11.068;2022-12-13T06:08:11;18.52;;;17.95;;
3811;SDS011;1921;49.368;11.068;2022-12-13T06:10:37;18.00;;;17.47;;
3811;SDS011;1921;49.368;11.068;2022-12-13T06:13:03;19.30;;;17.90;;
3811;SDS011;1921;49.368;11.068;2022-12-13T06:15:30;19.25;;;18.65;;
3811;SDS011;1921;49.368;11.068;2022-12-13T06:17:58;18.42;;;17.85;;
3811;SDS011;1921;49.368;11.068;2022-12-13T06:20:24;17.42;;;16.92;;
3811;SDS011;1921;49.368;11.068;2022-12-13T06:22:53;18.50;;;17.80;;
3811;SDS011;1921;49.368;11.068;2022-12-13T06:25:19;18.50;;;17.90;;
3811;SDS011;1921;49.368;11.068;2022-12-13T06:27:44;18.58;;;17.98;;
3811;SDS011;1921;49.368;11.068;2022-12-13T06:30:10;18.97;;;18.37;;
3811;SDS011;1921;49.368;11.068;2022-12-13T06:32:37;20.63;;;19.60;;
3811;SDS011;1921;49.368;11.068;2022-12-13T06:38:44;18.50;;;17.80;;
3811;SDS011;1921;49.368;11.068;2022-12-13T06:41:15;17.60;;;17.10;;
3811;SDS011;1921;49.368;11.068;2022-12-13T06:43:41;21.90;;;20.50;;
3811;SDS011;1921;49.368;11.068;2022-12-13T06:46:09;18.63;;;18.02;;
3811;SDS011;1921;49.368;11.068;2022-12-13T06:48:35;17.85;;;17.25;;
3811;SDS011;1921;49.368;11.068;2022-12-13T06:51:02;17.73;;;17.20;;
3811;SDS011;1921;49.368;11.068;2022-12-13T06:53:29;17.77;;;17.17;;
3811;SDS011;1921;49.368;11.068;2022-12-13T06:55:56;18.13;;;17.35;;
3811;SDS011;1921;49.368;11.068;2022-12-13T06:58:26;19.35;;;18.67;;
3811;SDS011;1921;49.368;11.068;2022-12-13T07:00:59;19.57;;;18.87;;
3811;SDS011;1921;49.368;11.068;2022-12-13T07:03:40;18.75;;;18.15;;
3811;SDS011;1921;49.368;11.068;2022-12-13T07:06:08;18.30;;;17.75;;
3811;SDS011;1921;49.368;11.068;2022-12-13T07:08:39;20.58;;;19.70;;
3811;SDS011;1921;49.368;11.068;2022-12-13T07:11:06;19.23;;;18.63;;
3811;SDS011;1921;49.368;11.068;2022-12-13T07:13:37;19.05;;;18.45;;
3811;SDS011;1921;49.368;11.068;2022-12-13T07:16:03;20.63;;;19.83;;
3811;SDS011;1921;49.368;11.068;2022-12-13T07:18:29;21.50;;;20.30;;
3811;SDS011;1921;49.368;11.068;2022-12-13T07:20:55;19.13;;;18.53;;
3811;SDS011;1921;49.368;11.068;2022-12-13T07:23:21;19.30;;;18.70;;
3811;SDS011;1921;49.368;11.068;2022-12-13T07:25:53;20.83;;;20.07;;
3811;SDS011;1921;49.368;11.068;2022-12-13T07:28:19;19.58;;;18.92;;
3811;SDS011;1921;49.368;11.068;2022-12-13T07:30:46;21.92;;;20.50;;
3811;SDS011;1921;49.368;11.068;2022-12-13T07:33:12;20.25;;;19.52;;
3811;SDS011;1921;49.368;11.068;2022-12-13T07:35:39;19.45;;;18.85;;
3811;SDS011;1921;49.368;11.068;2022-12-13T07:38:05;19.50;;;18.90;;
3811;SDS011;1921;49.368;11.068;2022-12-13T07:40:33;20.25;;;19.65;;
3811;SDS011;1921;49.368;11.068;2022-12-13T07:43:05;21.77;;;20.90;;
3811;SDS011;1921;49.368;11.068;2022-12-13T07:45:31;21.42;;;20.42;;
3811;SDS011;1921;49.368;11.068;2022-12-13T07:47:57;24.83;;;23.77;;
3811;SDS011;1921;49.368;11.068;2022-12-13T07:50:28;22.35;;;21.60;;
3811;SDS011;1921;49.368;11.068;2022-12-13T07:52:54;25.90;;;24.50;;
3811;SDS011;1921;49.368;11.068;2022-12-13T07:55:20;23.00;;;22.17;;
3811;SDS011;1921;49.368;11.068;2022-12-13T07:57:46;22.20;;;21.30;;
3811;SDS011;1921;49.368;11.068;2022-12-13T08:00:11;24.27;;;23.37;;
3811;SDS011;1921;49.368;11.068;2022-12-13T08:02:39;23.17;;;22.38;;
3811;SDS011;1921;49.368;11.068;2022-12-13T08:05:05;24.95;;;23.95;;
3811;SDS011;1921;49.368;11.068;2022-12-13T08:07:32;27.38;;;26.13;;
3811;SDS011;1921;49.368;11.068;2022-12-13T08:09:58;26.37;;;25.37;;
3811;SDS011;1921;49.368;11.068;2022-12-13T08:12:23;27.50;;;26.40;;
3811;SDS011;1921;49.368;11.068;2022-12-13T08:14:50;29.20;;;28.00;;
3811;SDS011;1921;49.368;11.068;2022-12-13T08:17:16;44.70;;;26.70;;
3811;SDS011;1921;49.368;11.068;2022-12-13T08:19:43;29.73;;;28.43;;
3811;SDS011;1921;49.368;11.068;2022-12-13T08:22:11;28.50;;;27.30;;
3811;SDS011;1921;49.368;11.068;2022-12-13T08:24:38;28.45;;;27.35;;
3811;SDS011;1921;49.368;11.068;2022-12-13T08:27:04;27.73;;;26.73;;
3811;SDS011;1921;49.368;11.068;2022-12-13T08:29:30;27.60;;;26.60;;
3811;SDS011;1921;49.368;11.068;2022-12-13T08:31:58;30.75;;;29.25;;
3811;SDS011;1921;49.368;11.068;2022-12-13T08:34:25;29.85;;;28.70;;
3811;SDS011;1921;49.368;11.068;2022-12-13T08:36:51;31.92;;;30.42;;
3811;SDS011;1921;49.368;11.068;2022-12-13T08:39:17;29.53;;;28.43;;
3811;SDS011;1921;49.368;11.068;2022-12-13T08:41:42;32.23;;;30.60;;
3811;SDS011;1921;49.368;11.068;2022-12-13T08:44:08;34.10;;;32.20;;
3811;SDS011;1921;49.368;11.068;2022-12-13T08:46:34;34.57;;;33.07;;
3811;SDS011;1921;49.368;11.068;2022-12-13T08:48:59;36.17;;;34.40;;
3811;SDS011;1921;49.368;11.068;2022-12-13T08:51:25;38.17;;;36.13;;
3811;SDS011;1921;49.368;11.068;2022-12-13T08:53:51;38.77;;;36.67;;
3811;SDS011;1921;49.368;11.068;2022-12-13T08:56:17;38.80;;;36.70;;
3811;SDS011;1921;49.368;11.068;2022-12-13T08:58:43;40.20;;;37.67;;
3811;SDS011;1921;49.368;11.068;2022-12-13T09:01:15;39.07;;;36.87;;
3811;SDS011;1921;49.368;11.068;2022-12-13T09:03:41;44.30;;;41.40;;
3811;SDS011;1921;49.368;11.068;2022-12-13T09:06:09;42.73;;;39.77;;
3811;SDS011;1921;49.368;11.068;2022-12-13T09:08:40;41.87;;;39.10;;
3811;SDS011;1921;49.368;11.068;2022-12-13T09:11:08;39.93;;;37.73;;
3811;SDS011;1921;49.368;11.068;2022-12-13T09:13:35;41.37;;;38.70;;
3811;SDS011;1921;49.368;11.068;2022-12-13T09:16:06;41.53;;;38.90;;
3811;SDS011;1921;49.368;11.068;2022-12-13T09:18:42;43.57;;;40.50;;
3811;SDS011;1921;49.368;11.068;2022-12-13T09:21:09;45.60;;;42.13;;
3811;SDS011;1921;49.368;11.068;2022-12-13T09:23:38;47.30;;;42.50;;
3811;SDS011;1921;49.368;11.068;2022-12-13T09:26:06;44.80;;;41.60;;
3811;SDS011;1921;49.368;11.068;2022-12-13T09:28:33;45.43;;;42.13;;
3811;SDS011;1921;49.368;11.068;2022-12-13T09:31:04;45.30;;;42.00;;
3811;SDS011;1921;49.368;11.068;2022-12-13T09:33:31;45.27;;;41.67;;
3811;SDS011;1921;49.368;11.068;2022-12-13T09:35:57;46.10;;;42.57;;
3811;SDS011;1921;49.368;11.068;2022-12-13T09:38:24;45.60;;;42.10;;
3811;SDS011;1921;49.368;11.068;2022-12-13T09:43:23;44.40;;;41.20;;
3811;SDS011;1921;49.368;11.068;2022-12-13T09:45:55;47.57;;;43.87;;
3811;SDS011;1921;49.368;11.068;2022-12-13T09:48:21;46.60;;;42.77;;
3811;SDS011;1921;49.368;11.068;2022-12-13T09:50:47;45.70;;;41.80;;
3811;SDS011;1921;49.368;11.068;2022-12-13T09:53:15;46.40;;;42.80;;
3811;SDS011;1921;49.368;11.068;2022-12-13T09:55:44;44.53;;;41.43;;
3811;SDS011;1921;49.368;11.068;2022-12-13T09:58:29;46.83;;;42.73;;
3811;SDS011;1921;49.368;11.068;2022-12-13T10:00:58;45.67;;;42.27;;
3811;SDS011;1921;49.368;11.068;2022-12-13T10:03:25;45.97;;;42.57;;
3811;SDS011;1921;49.368;11.068;2022-12-13T10:08:41;46.30;;;42.63;;
3811;SDS011;1921;49.368;11.068;2022-12-13T10:11:13;44.93;;;41.50;;
3811;SDS011;1921;49.368;11.068;2022-12-13T10:13:42;43.60;;;40.50;;
3811;SDS011;1921;49.368;11.068;2022-12-13T10:18:59;47.60;;;43.80;;
3811;SDS011;1921;49.368;11.068;2022-12-13T10:21:36;45.77;;;42.10;;
3811;SDS011;1921;49.368;11.068;2022-12-13T10:24:17;49.07;;;44.77;;
3811;SDS011;1921;49.368;11.068;2022-12-13T10:26:46;48.80;;;44.10;;
3811;SDS011;1921;49.368;11.068;2022-12-13T10:29:12;48.17;;;44.07;;
3811;SDS011;1921;49.368;11.068;2022-12-13T10:31:39;45.17;;;41.53;;
3811;SDS011;1921;49.368;11.068;2022-12-13T10:34:15;44.60;;;41.40;;
3811;SDS011;1921;49.368;11.068;2022-12-13T10:36:45;47.57;;;42.67;;
3811;SDS011;1921;49.368;11.068;2022-12-13T10:39:15;46.80;;;43.27;;
3811;SDS011;1921;49.368;11.068;2022-12-13T10:42:11;43.47;;;40.47;;
3811;SDS011;1921;49.368;11.068;2022-12-13T10:44:44;46.60;;;42.83;;
3811;SDS011;1921;49.368;11.068;2022-12-13T10:47:22;46.93;;;43.00;;
3811;SDS011;1921;49.368;11.068;2022-12-13T10:49:51;46.47;;;42.60;;
3811;SDS011;1921;49.368;11.068;2022-12-13T10:52:32;44.30;;;41.07;;
3811;SDS011;1921;49.368;11.068;2022-12-13T10:55:04;44.37;;;41.20;;
3811;SDS011;1921;49.368;11.068;2022-12-13T10:57:52;47.30;;;43.30;;
3811;SDS011;1921;49.368;11.068;2022-12-13T11:00:35;48.60;;;44.27;;
3811;SDS011;1921;49.368;11.068;2022-12-13T11:03:09;46.37;;;42.70;;
3811;SDS011;1921;49.368;11.068;2022-12-13T11:06:11;47.20;;;43.40;;
3811;SDS011;1921;49.368;11.068;2022-12-13T11:08:42;48.13;;;43.73;;
3811;SDS011;1921;49.368;11.068;2022-12-13T11:11:08;51.07;;;46.27;;
3811;SDS011;1921;49.368;11.068;2022-12-13T11:13:40;47.73;;;43.63;;
3811;SDS011;1921;49.368;11.068;2022-12-13T11:19:19;51.83;;;46.73;;
3811;SDS011;1921;49.368;11.068;2022-12-13T11:21:49;49.70;;;44.60;;
3811;SDS011;1921;49.368;11.068;2022-12-13T11:24:20;49.00;;;44.47;;
3811;SDS011;1921;49.368;11.068;2022-12-13T11:27:13;49.50;;;45.07;;
3811;SDS011;1921;49.368;11.068;2022-12-13T11:30:25;47.87;;;43.97;;
3811;SDS011;1921;49.368;11.068;2022-12-13T11:33:26;45.90;;;42.33;;
3811;SDS011;1921;49.368;11.068;2022-12-13T11:38:53;46.87;;;42.97;;
3811;SDS011;1921;49.368;11.068;2022-12-13T11:41:53;50.17;;;45.47;;
3811;SDS011;1921;49.368;11.068;2022-12-13T11:45:00;50.30;;;45.70;;
3811;SDS011;1921;49.368;11.068;2022-12-13T11:50:49;48.23;;;44.03;;
3811;SDS011;1921;49.368;11.068;2022-12-13T11:55:47;46.87;;;43.10;;
3811;SDS011;1921;49.368;11.068;2022-12-13T11:58:47;46.13;;;42.53;;
3811;SDS011;1921;49.368;11.068;2022-12-13T12:01:35;47.07;;;42.93;;
3811;SDS011;1921;49.368;11.068;2022-12-13T12:04:25;45.70;;;42.20;;
3811;SDS011;1921;49.368;11.068;2022-12-13T12:07:20;43.77;;;40.70;;
3811;SDS011;1921;49.368;11.068;2022-12-13T12:10:22;45.43;;;41.93;;
3811;SDS011;1921;49.368;11.068;2022-12-13T12:13:05;49.43;;;45.47;;
3811;SDS011;1921;49.368;11.068;2022-12-13T12:15:35;45.60;;;42.20;;
3811;SDS011;1921;49.368;11.068;2022-12-13T12:18:12;44.07;;;40.77;;
3811;SDS011;1921;49.368;11.068;2022-12-13T12:20:47;44.13;;;41.07;;
3811;SDS011;1921;49.368;11.068;2022-12-13T12:30:00;46.07;;;42.50;;
3811;SDS011;1921;49.368;11.068;2022-12-13T12:43:53;44.23;;;40.93;;
3811;SDS011;1921;49.368;11.068;2022-12-13T12:49:20;45.73;;;42.13;;
3811;SDS011;1921;49.368;11.068;2022-12-13T12:51:58;45.37;;;41.87;;
3811;SDS011;1921;49.368;11.068;2022-12-13T12:58:17;45.57;;;42.00;;
3811;SDS011;1921;49.368;11.068;2022-12-13T13:00:51;45.27;;;41.70;;
3811;SDS011;1921;49.368;11.068;2022-12-13T13:03:27;43.87;;;40.77;;
3811;SDS011;1921;49.368;11.068;2022-12-13T13:06:18;45.37;;;41.80;;
3811;SDS011;1921;49.368;11.068;2022-12-13T13:09:05;44.13;;;40.40;;
3811;SDS011;1921;49.368;11.068;2022-12-13T13:11:34;43.30;;;40.20;;
3811;SDS011;1921;49.368;11.068;2022-12-13T13:20:10;42.67;;;39.87;;
3811;SDS011;1921;49.368;11.068;2022-12-13T13:22:43;42.07;;;39.33;;
3811;SDS011;1921;49.368;11.068;2022-12-13T13:27:44;43.03;;;40.07;;
3811;SDS011;1921;49.368;11.068;2022-12-13T13:32:45;42.97;;;40.27;;
3811;SDS011;1921;49.368;11.068;2022-12-13T13:37:56;43.27;;;40.20;;
3811;SDS011;1921;49.368;11.068;2022-12-13T13:40:49;41.80;;;39.07;;
3811;SDS011;1921;49.368;11.068;2022-12-13T13:43:15;41.67;;;39.07;;
3811;SDS011;1921;49.368;11.068;2022-12-13T13:48:38;44.13;;;41.03;;
3811;SDS011;1921;49.368;11.068;2022-12-13T14:01:24;40.93;;;38.43;;
3811;SDS011;1921;49.368;11.068;2022-12-13T14:16:42;41.60;;;38.93;;
3811;SDS011;1921;49.368;11.068;2022-12-13T14:22:25;40.43;;;38.03;;
3811;SDS011;1921;49.368;11.068;2022-12-13T14:25:43;41.13;;;38.23;;
3811;SDS011;1921;49.368;11.068;2022-12-13T14:28:45;39.50;;;37.20;;
3811;SDS011;1921;49.368;11.068;2022-12-13T14:31:25;41.67;;;39.23;;
3811;SDS011;1921;49.368;11.068;2022-12-13T14:34:06;41.40;;;38.83;;
3811;SDS011;1921;49.368;11.068;2022-12-13T14:37:02;41.27;;;38.87;;
3811;SDS011;1921;49.368;11.068;2022-12-13T14:39:42;40.73;;;38.33;;
3811;SDS011;1921;49.368;11.068;2022-12-13T14:42:21;40.07;;;37.77;;
3811;SDS011;1921;49.368;11.068;2022-12-13T14:45:14;39.90;;;37.67;;
3811;SDS011;1921;49.368;11.068;2022-12-13T14:47:49;40.80;;;38.20;;
3811;SDS011;1921;49.368;11.068;2022-12-13T14:50:18;39.00;;;36.90;;
3811;SDS011;1921;49.368;11.068;2022-12-13T14:52:45;38.93;;;36.87;;
3811;SDS011;1921;49.368;11.068;2022-12-13T14:55:21;39.73;;;37.43;;
3811;SDS011;1921;49.368;11.068;2022-12-13T14:57:51;39.30;;;36.90;;
3811;SDS011;1921;49.368;11.068;2022-12-13T15:00:28;40.07;;;37.23;;
3811;SDS011;1921;49.368;11.068;2022-12-13T15:02:58;38.37;;;36.27;;
3811;SDS011;1921;49.368;11.068;2022-12-13T15:05:28;40.30;;;38.10;;
3811;SDS011;1921;49.368;11.068;2022-12-13T15:07:56;38.80;;;36.80;;
3811;SDS011;1921;49.368;11.068;2022-12-13T15:10:25;38.83;;;36.77;;
3811;SDS011;1921;49.368;11.068;2022-12-13T15:12:56;39.10;;;37.00;;
3811;SDS011;1921;49.368;11.068;2022-12-13T15:15:26;38.13;;;36.23;;
3811;SDS011;1921;49.368;11.068;2022-12-13T15:20:41;38.47;;;36.47;;
3811;SDS011;1921;49.368;11.068;2022-12-13T15:25:54;37.17;;;35.35;;
3811;SDS011;1921;49.368;11.068;2022-12-13T15:28:34;40.60;;;38.50;;
3811;SDS011;1921;49.368;11.068;2022-12-13T15:31:04;38.40;;;36.50;;
3811;SDS011;1921;49.368;11.068;2022-12-13T15:33:31;37.80;;;35.90;;
3811;SDS011;1921;49.368;11.068;2022-12-13T15:41:18;36.50;;;34.80;;
3811;SDS011;1921;49.368;11.068;2022-12-13T15:43:51;38.67;;;36.28;;
3811;SDS011;1921;49.368;11.068;2022-12-13T15:46:30;38.67;;;36.78;;
3811;SDS011;1921;49.368;11.068;2022-12-13T15:49:00;37.50;;;35.53;;
3811;SDS011;1921;49.368;11.068;2022-12-13T15:51:27;36.35;;;34.65;;
3811;SDS011;1921;49.368;11.068;2022-12-13T15:57:20;37.15;;;35.35;;
3811;SDS011;1921;49.368;11.068;2022-12-13T15:59:30;37.03;;;34.55;;
3811;SDS011;1921;49.368;11.068;2022-12-13T16:01:58;37.47;;;35.67;;
3811;SDS011;1921;49.368;11.068;2022-12-13T16:04:26;36.20;;;33.88;;
3811;SDS011;1921;49.368;11.068;2022-12-13T16:06:56;38.45;;;36.13;;
3811;SDS011;1921;49.368;11.068;2022-12-13T16:09:24;35.85;;;34.15;;
3811;SDS011;1921;49.368;11.068;2022-12-13T16:11:56;36.28;;;34.08;;
3811;SDS011;1921;49.368;11.068;2022-12-13T16:19:50;36.85;;;34.95;;
3811;SDS011;1921;49.368;11.068;2022-12-13T16:22:22;35.83;;;34.17;;
3811;SDS011;1921;49.368;11.068;2022-12-13T16:24:49;36.27;;;34.40;;
3811;SDS011;1921;49.368;11.068;2022-12-13T16:27:16;35.00;;;33.45;;
3811;SDS011;1921;49.368;11.068;2022-12-13T16:29:42;36.20;;;34.40;;
3811;SDS011;1921;49.368;11.068;2022-12-13T16:32:08;35.60;;;33.90;;
3811;SDS011;1921;49.368;11.068;2022-12-13T16:34:37;37.95;;;35.55;;
3811;SDS011;1921;49.368;11.068;2022-12-13T16:37:03;35.53;;;33.58;;
3811;SDS011;1921;49.368;11.068;2022-12-13T16:39:30;37.63;;;35.50;;
3811;SDS011;1921;49.368;11.068;2022-12-13T16:41:56;34.80;;;33.28;;
3811;SDS011;1921;49.368;11.068;2022-12-13T16:44:35;35.72;;;34.03;;
3811;SDS011;1921;49.368;11.068;2022-12-13T16:47:06;36.42;;;34.40;;
3811;SDS011;1921;49.368;11.068;2022-12-13T16:49:33;36.28;;;34.30;;
3811;SDS011;1921;49.368;11.068;2022-12-13T16:51:59;37.50;;;35.43;;
3811;SDS011;1921;49.368;11.068;2022-12-13T16:54:26;35.67;;;34.05;;
3811;SDS011;1921;49.368;11.068;2022-12-13T16:56:52;33.80;;;32.30;;
3811;SDS011;1921;49.368;11.068;2022-12-13T16:59:20;35.78;;;34.05;;
3811;SDS011;1921;49.368;11.068;2022-12-13T17:01:48;35.08;;;33.45;;
3811;SDS011;1921;49.368;11.068;2022-12-13T17:04:16;37.88;;;35.67;;
3811;SDS011;1921;49.368;11.068;2022-12-13T17:06:48;34.40;;;32.90;;
3811;SDS011;1921;49.368;11.068;2022-12-13T17:09:14;35.42;;;33.83;;
3811;SDS011;1921;49.368;11.068;2022-12-13T17:11:41;35.63;;;33.92;;
3811;SDS011;1921;49.368;11.068;2022-12-13T17:14:07;35.83;;;34.13;;